Aviation Digital Data Service (ADDS)

Output produced by METARs form (0037 UTC 24 May 2022)
found at http://www.aviationweather.gov/metar/data/
 
GGOV 240000Z 30005KT 250V350 CAVOK 23/20 Q1013 NOSIG
TAF GGOV 232300Z 2400/2424 VRB05KT 8000 NSC